Terminal Aerodrome Forecast
Issued by NWS

Home | Current Version | Previous Version | Text Only | Print | Product List | Glossary On
Versions: 1 2 3 4 5 6 7 8 9 10 11 12 13 14 15 16 17 18 19 20 21 22 23 24
621
FTUS43 KLSX 010536
TAFSUS
TAF
KSUS 010536Z 0106/0206 21010KT P6SM VCTS OVC250CB WS020/23045KT
     FM010700 23008KT 5SM -TSRA SCT025CB BKN090
      TEMPO 0109/0110 2SM TSRA OVC040CB
     FM011100 28015G24KT P6SM BKN015
     FM011600 28016G28KT P6SM BKN035
     FM020300 30008KT P6SM SKC=

USA.gov is the U.S. government's official web portal to all federal, state and local government web resources and services.